Terminal Aerodrome Forecast
Issued by NWS Salt Lake City, UT

Home | Current Version | Previous Version | Text Only | Print | Product List | Glossary On
Versions: 1 2 3 4 5 6 7 8 9 10 11 12 13 14 15 16 17 18 19 20 21 22 23 24 25 26 27
000
FTUS45 KSLC 251736
TAFCDC
TAF
KCDC 251736Z 2518/2618 20018G30KT P6SM VCSH SCT030 BKN100
     FM252100 21018G30KT P6SM -SHRA BKN040 BKN070
     FM260600 18006KT 6SM -SHRA BR BKN025 OVC035
     FM261100 36012G18KT P6SM -SHRA BKN025 BKN035 OVC050
     FM261500 01014G24KT P6SM VCSH SCT030 BKN050=

USA.gov is the U.S. government's official web portal to all federal, state and local government web resources and services.